createdAt,value
2019-05-28T00:01:48.638Z,101031.89
2019-05-28T00:04:18.953Z,101028.00
2019-05-28T00:06:50.100Z,101028.86
2019-05-28T00:09:20.414Z,101025.37
2019-05-28T00:11:50.747Z,101020.16
2019-05-28T00:14:21.664Z,101013.59
2019-05-28T00:16:51.923Z,101020.64
2019-05-28T00:19:22.171Z,101019.34
2019-05-28T00:21:52.539Z,101020.23
2019-05-28T00:24:23.070Z,101022.42
2019-05-28T00:26:53.683Z,101019.34
2019-05-28T00:29:24.072Z,101011.42
2019-05-28T00:31:54.926Z,101014.45
2019-05-28T00:34:25.222Z,101014.38
2019-05-28T00:36:56.188Z,101007.36
2019-05-28T00:39:28.067Z,100997.30
2019-05-28T00:41:59.408Z,101001.21
2019-05-28T00:44:30.097Z,101000.30
2019-05-28T00:47:01.244Z,100991.95
2019-05-28T00:49:31.612Z,100995.86
2019-05-28T00:52:03.276Z,100991.03
2019-05-28T00:54:34.559Z,100999.30
2019-05-28T00:57:05.319Z,100997.13
2019-05-28T00:59:35.811Z,100996.25
2019-05-28T01:02:06.481Z,101000.18
2019-05-28T01:04:37.082Z,100998.91
2019-05-28T01:07:07.656Z,101002.38
2019-05-28T01:09:37.902Z,101003.25
2019-05-28T01:12:10.154Z,101007.61
2019-05-28T01:14:40.840Z,101001.95
2019-05-28T01:17:11.300Z,101005.47
2019-05-28T01:19:41.635Z,100994.57
2019-05-28T01:22:13.727Z,100998.20
2019-05-28T01:24:43.996Z,100990.41
2019-05-28T01:27:14.287Z,100991.77
2019-05-28T01:29:44.654Z,100993.95
2019-05-28T01:32:16.611Z,100991.78
2019-05-28T01:34:46.941Z,100993.93
2019-05-28T01:37:18.496Z,100996.02
2019-05-28T01:39:48.814Z,100997.27
2019-05-28T01:42:21.733Z,100992.89
2019-05-28T01:44:52.045Z,100997.60
2019-05-28T01:47:24.928Z,100998.91
2019-05-28T01:49:55.190Z,101002.84
2019-05-28T01:52:28.111Z,100998.50
2019-05-28T01:54:59.262Z,101001.08
2019-05-28T01:57:30.035Z,101000.65
2019-05-28T02:00:00.420Z,100993.27
2019-05-28T02:02:31.854Z,100997.19
2019-05-28T02:05:02.706Z,100991.47
2019-05-28T02:07:33.786Z,100990.17
2019-05-28T02:10:07.539Z,100986.66
2019-05-28T02:12:37.838Z,100981.70
2019-05-28T02:15:09.755Z,100978.52
2019-05-28T02:17:40.851Z,100987.19
2019-05-28T02:20:11.804Z,100986.27
2019-05-28T02:22:42.928Z,100984.53
2019-05-28T02:25:14.075Z,100983.64
2019-05-28T02:27:44.454Z,100985.41
2019-05-28T02:30:16.558Z,100986.23
2019-05-28T02:32:47.636Z,100987.97
2019-05-28T02:35:20.329Z,100983.06
2019-05-28T02:37:51.735Z,100977.41
2019-05-28T02:40:24.121Z,100979.52
2019-05-28T02:42:54.638Z,100975.13
2019-05-28T02:45:26.814Z,100972.92
2019-05-28T02:47:57.841Z,100973.73
2019-05-28T02:50:43.074Z,100978.97
2019-05-28T02:53:15.077Z,100967.20
2019-05-28T02:55:47.661Z,100967.66
2019-05-28T02:58:20.848Z,100967.18
2019-05-28T03:00:51.256Z,100968.05
2019-05-28T03:03:24.602Z,100967.11
2019-05-28T03:05:58.537Z,100969.73
2019-05-28T03:08:32.230Z,100970.58
2019-05-28T03:11:04.378Z,100971.84
2019-05-28T03:13:35.464Z,100962.72
2019-05-28T03:16:07.819Z,100968.00
2019-05-28T03:18:42.016Z,100974.90
2019-05-28T03:21:13.068Z,100968.78
2019-05-28T03:23:47.669Z,100966.54
2019-05-28T03:26:18.446Z,100965.67
2019-05-28T03:28:48.731Z,100967.34
2019-05-28T03:31:18.991Z,100970.38
2019-05-28T03:33:52.794Z,100968.57
2019-05-28T03:36:26.067Z,100972.06
2019-05-28T03:39:00.099Z,100961.59
2019-05-28T03:41:30.361Z,100965.14
2019-05-28T03:44:01.699Z,100968.66
2019-05-28T03:46:32.050Z,100966.92
2019-05-28T03:49:04.876Z,100966.88
2019-05-28T03:51:35.189Z,100968.65
2019-05-28T03:54:10.226Z,100970.41
2019-05-28T03:56:40.470Z,100964.88
2019-05-28T03:59:10.829Z,100981.08
2019-05-28T04:01:41.548Z,100975.92
2019-05-28T04:04:11.821Z,100971.72
2019-05-28T04:06:42.146Z,100971.84
2019-05-28T04:09:12.780Z,100967.98
2019-05-28T04:11:45.031Z,100970.61
2019-05-28T04:14:15.105Z,100975.80
2019-05-28T04:16:45.504Z,100980.98
2019-05-28T04:19:15.830Z,100979.14
2019-05-28T04:21:46.147Z,100976.07
2019-05-28T04:24:16.509Z,100973.91
2019-05-28T04:26:46.776Z,100984.00
2019-05-28T04:29:17.021Z,100981.05
2019-05-28T04:31:49.425Z,100977.58
2019-05-28T04:34:20.712Z,100979.87
2019-05-28T04:36:52.128Z,100984.27
2019-05-28T04:39:25.261Z,100986.47
2019-05-28T04:41:55.584Z,100986.92
2019-05-28T04:44:25.929Z,100989.69
2019-05-28T04:46:56.836Z,100986.25
2019-05-28T04:49:27.509Z,100988.98
2019-05-28T04:51:59.341Z,100989.90
2019-05-28T04:54:29.703Z,100994.33
2019-05-28T04:57:01.116Z,100991.94
2019-05-28T04:59:33.776Z,100988.16
2019-05-28T05:02:04.624Z,100994.30
2019-05-28T05:04:35.331Z,101001.30
2019-05-28T05:07:05.966Z,100997.19
2019-05-28T05:09:36.649Z,100998.39
2019-05-28T05:12:06.961Z,100995.59
2019-05-28T05:14:40.067Z,100996.12
2019-05-28T05:17:10.803Z,101002.00
2019-05-28T05:19:41.737Z,100999.65
2019-05-28T05:22:12.061Z,101000.45
2019-05-28T05:24:42.952Z,100998.95
2019-05-28T05:27:13.257Z,101005.80
2019-05-28T05:29:43.601Z,100999.91
2019-05-28T05:32:14.630Z,101002.63
2019-05-28T05:34:44.959Z,101007.98
2019-05-28T05:37:20.005Z,101008.70
2019-05-28T05:39:50.942Z,101006.45
2019-05-28T05:42:23.496Z,101007.88
2019-05-28T05:44:54.021Z,101013.13
2019-05-28T05:47:24.779Z,101017.66
2019-05-28T05:49:55.550Z,101008.61
2019-05-28T05:52:26.832Z,101009.98
2019-05-28T05:54:58.239Z,101005.24
2019-05-28T05:57:28.840Z,101003.13
2019-05-28T05:59:59.090Z,101004.89
2019-05-28T06:02:29.365Z,101002.80
2019-05-28T06:04:59.651Z,101010.20
2019-05-28T06:07:31.052Z,101000.94
2019-05-28T06:10:01.919Z,101009.70
2019-05-28T06:12:32.482Z,101000.83
2019-05-28T06:15:03.158Z,101007.31
2019-05-28T06:17:34.227Z,101015.63
2019-05-28T06:20:08.881Z,101021.09
2019-05-28T06:22:39.317Z,101026.51
2019-05-28T06:25:10.752Z,101031.44
2019-05-28T06:27:41.859Z,101030.89
2019-05-28T06:30:13.223Z,101035.64
2019-05-28T06:32:43.474Z,101032.80
2019-05-28T06:35:14.714Z,101040.72
2019-05-28T06:37:45.519Z,101037.50
2019-05-28T06:40:17.315Z,101046.13
2019-05-28T06:42:47.572Z,101043.69
2019-05-28T06:45:18.230Z,101037.63
2019-05-28T06:47:48.478Z,101042.37
2019-05-28T06:50:21.825Z,101045.81
2019-05-28T06:52:52.549Z,101046.83
2019-05-28T06:55:24.277Z,101049.70
2019-05-28T06:57:55.693Z,101056.73
2019-05-28T07:00:26.844Z,101064.66
2019-05-28T07:02:57.739Z,101064.02
2019-05-28T07:05:28.605Z,101065.23
2019-05-28T07:07:58.859Z,101066.28
2019-05-28T07:10:29.556Z,101070.04
2019-05-28T07:13:00.273Z,101066.59
2019-05-28T07:15:31.749Z,101063.80
2019-05-28T07:18:02.440Z,101058.83
2019-05-28T07:20:34.075Z,101060.80
2019-05-28T07:23:04.522Z,101063.72
2019-05-28T07:25:34.878Z,101061.52
2019-05-28T07:28:11.311Z,101065.92
2019-05-28T07:30:38.498Z,101065.89
2019-05-28T07:33:10.108Z,101061.91
2019-05-28T07:35:45.966Z,101059.76
2019-05-28T07:38:12.509Z,101069.25
2019-05-28T07:40:44.864Z,101071.88
2019-05-28T07:43:15.583Z,101072.77
2019-05-28T07:45:47.461Z,101076.87
2019-05-28T07:48:17.788Z,101081.80
2019-05-28T07:50:48.387Z,101077.30
2019-05-28T07:53:18.770Z,101082.28
2019-05-28T07:55:51.304Z,101080.23
2019-05-28T07:58:26.075Z,101097.25
2019-05-28T08:00:57.835Z,101110.16
2019-05-28T08:03:28.659Z,101109.42
2019-05-28T08:06:00.652Z,101109.71
2019-05-28T08:08:32.066Z,101109.40
2019-05-28T08:11:02.843Z,101102.17
2019-05-28T08:13:40.806Z,101103.53
2019-05-28T08:16:18.045Z,101109.36
2019-05-28T08:18:39.287Z,101101.32
2019-05-28T08:21:09.563Z,101106.45
2019-05-28T08:23:41.381Z,101103.35
2019-05-28T08:26:12.768Z,101105.84
2019-05-28T08:28:43.134Z,101104.06
2019-05-28T08:31:16.472Z,101103.80
2019-05-28T08:33:45.535Z,101103.46
2019-05-28T08:36:18.150Z,101104.30
2019-05-28T08:38:48.773Z,101110.02
2019-05-28T08:41:20.092Z,101110.67
2019-05-28T08:43:50.454Z,101114.72
2019-05-28T08:46:21.150Z,101111.07
2019-05-28T08:48:51.980Z,101101.01
2019-05-28T08:51:23.649Z,101109.47
2019-05-28T08:53:54.783Z,101103.95
2019-05-28T08:56:25.069Z,101101.27
2019-05-28T08:58:56.294Z,101087.52
2019-05-28T09:01:27.405Z,101088.68
2019-05-28T09:03:59.452Z,101092.59
2019-05-28T09:06:29.770Z,101085.80
2019-05-28T09:09:00.201Z,101090.78
2019-05-28T09:11:33.184Z,101090.78
2019-05-28T09:14:03.715Z,101096.12
2019-05-28T09:16:34.365Z,101102.96
2019-05-28T09:19:10.301Z,101115.54
2019-05-28T09:21:39.252Z,101114.17
2019-05-28T09:24:10.875Z,101115.70
2019-05-28T09:26:41.231Z,101123.47
2019-05-28T09:29:11.545Z,101128.56
2019-05-28T09:31:41.903Z,101138.32
2019-05-28T09:34:12.329Z,101137.25
2019-05-28T09:36:43.411Z,101138.87
2019-05-28T09:39:13.688Z,101127.29
2019-05-28T09:41:44.416Z,101131.58
2019-05-28T09:44:14.850Z,101129.96
2019-05-28T09:46:46.191Z,101126.20
2019-05-28T09:49:17.957Z,101121.47
2019-05-28T09:51:48.378Z,101121.47
2019-05-28T09:54:18.804Z,101123.65
2019-05-28T09:56:52.018Z,101128.44
2019-05-28T09:59:22.942Z,101136.52
2019-05-28T10:01:53.593Z,101131.19
2019-05-28T10:04:43.071Z,101132.55
2019-05-28T10:06:56.379Z,101124.47
2019-05-28T10:09:26.690Z,101131.05
2019-05-28T10:11:57.100Z,101129.55
2019-05-28T10:14:27.419Z,101136.20
2019-05-28T10:16:59.493Z,101144.41
2019-05-28T10:19:30.179Z,101147.34
2019-05-28T10:22:00.904Z,101161.30
2019-05-28T10:24:31.243Z,101162.38
2019-05-28T10:27:02.619Z,101162.23
2019-05-28T10:29:33.015Z,101155.59
2019-05-28T10:32:03.313Z,101155.45
2019-05-28T10:34:33.930Z,101148.61
2019-05-28T10:37:06.026Z,101149.44
2019-05-28T10:39:36.385Z,101146.94
2019-05-28T10:42:07.842Z,101147.34
2019-05-28T10:44:38.105Z,101139.31
2019-05-28T10:47:10.204Z,101141.48
2019-05-28T10:49:40.449Z,101139.55
2019-05-28T10:52:11.291Z,101143.50
2019-05-28T10:54:41.597Z,101144.70
2019-05-28T10:57:12.541Z,101158.13
2019-05-28T10:59:44.297Z,101160.67
2019-05-28T11:02:14.650Z,101167.09
2019-05-28T11:04:45.058Z,101162.16
2019-05-28T11:07:17.463Z,101162.67
2019-05-28T11:09:47.796Z,101164.42
2019-05-28T11:12:18.576Z,101173.03
2019-05-28T11:14:50.694Z,101164.03
2019-05-28T11:17:22.928Z,101167.19
2019-05-28T11:19:53.195Z,101172.91
2019-05-28T11:22:23.817Z,101176.93
2019-05-28T11:24:54.053Z,101180.78
2019-05-28T11:27:25.861Z,101187.20
2019-05-28T11:29:56.145Z,101179.39
2019-05-28T11:32:26.496Z,101199.32
2019-05-28T11:34:56.818Z,101195.03
2019-05-28T11:37:28.057Z,101192.81
2019-05-28T11:39:58.745Z,101188.99
2019-05-28T11:42:30.326Z,101180.84
2019-05-28T11:45:00.784Z,101185.26
2019-05-28T11:47:32.391Z,101192.33
2019-05-28T11:50:03.458Z,101188.75
2019-05-28T11:52:34.073Z,101189.43
2019-05-28T11:55:09.522Z,101189.39
2019-05-28T11:57:40.747Z,101192.28
2019-05-28T12:00:16.323Z,101190.94
2019-05-28T12:02:47.240Z,101196.39
2019-05-28T12:05:18.758Z,101195.83
2019-05-28T12:07:51.933Z,101196.39
2019-05-28T12:10:24.643Z,101206.72
2019-05-28T12:12:55.386Z,101197.66
2019-05-28T12:15:26.714Z,101210.77
2019-05-28T12:17:57.992Z,101220.01
2019-05-28T12:20:29.554Z,101221.77
2019-05-28T12:23:11.105Z,101220.66
2019-05-28T12:25:32.724Z,101221.82
2019-05-28T12:28:03.577Z,101217.88
2019-05-28T12:30:33.819Z,101216.63
2019-05-28T12:33:05.068Z,101214.34
2019-05-28T12:35:35.393Z,101223.87
2019-05-28T12:38:05.738Z,101218.74
2019-05-28T12:40:46.990Z,101216.52
2019-05-28T12:43:09.640Z,101214.50
2019-05-28T12:45:40.037Z,101221.52
2019-05-28T12:48:13.035Z,101209.36
2019-05-28T12:50:42.890Z,101219.13
2019-05-28T12:53:13.668Z,101212.19
2019-05-28T12:55:46.377Z,101227.23
2019-05-28T12:58:18.180Z,101210.30
2019-05-28T13:00:48.906Z,101227.50
2019-05-28T13:03:20.557Z,101219.04
2019-05-28T13:05:52.136Z,101217.11
2019-05-28T13:08:22.851Z,101225.62
2019-05-28T13:10:53.087Z,101225.95
2019-05-28T13:13:25.618Z,101224.33
2019-05-28T13:15:56.201Z,101227.44
2019-05-28T13:18:26.855Z,101223.97
2019-05-28T13:20:57.866Z,101224.18
2019-05-28T13:23:28.596Z,101229.67
2019-05-28T13:25:58.916Z,101237.09
2019-05-28T13:28:29.556Z,101252.38
2019-05-28T13:30:59.991Z,101243.55
2019-05-28T13:33:30.306Z,101239.77
2019-05-28T13:36:00.936Z,101241.44
2019-05-28T13:38:31.303Z,101241.19
2019-05-28T13:41:01.631Z,101238.38
2019-05-28T13:43:32.829Z,101241.30
2019-05-28T13:46:04.155Z,101240.84
2019-05-28T13:48:34.516Z,101243.83
2019-05-28T13:51:05.586Z,101246.70
2019-05-28T13:53:37.081Z,101246.86
2019-05-28T13:56:08.106Z,101246.12
2019-05-28T13:58:38.487Z,101235.30
2019-05-28T14:01:11.182Z,101245.10
2019-05-28T14:03:41.744Z,101251.34
2019-05-28T14:06:13.095Z,101253.11
2019-05-28T14:08:47.662Z,101253.86
2019-05-28T14:11:18.854Z,101262.75
2019-05-28T14:13:51.131Z,101259.67
2019-05-28T14:16:21.451Z,101263.20
2019-05-28T14:18:52.905Z,101280.58
2019-05-28T14:21:23.365Z,101284.64
2019-05-28T14:24:05.999Z,101275.56
2019-05-28T14:26:36.447Z,101272.47
2019-05-28T14:29:07.208Z,101279.05
2019-05-28T14:31:38.007Z,101281.57
2019-05-28T14:34:08.817Z,101289.47
2019-05-28T14:36:39.411Z,101309.83
2019-05-28T14:39:11.763Z,101311.80
2019-05-28T14:41:42.265Z,101312.77
2019-05-28T14:44:14.803Z,101309.16
2019-05-28T14:46:45.122Z,101308.91
2019-05-28T14:49:15.938Z,101313.86
2019-05-28T14:51:46.587Z,101317.89
2019-05-28T14:54:16.976Z,101315.08
2019-05-28T14:56:47.407Z,101314.25
2019-05-28T14:59:17.673Z,101314.27
2019-05-28T15:01:49.370Z,101322.90
2019-05-28T15:04:21.391Z,101328.74
2019-05-28T15:06:52.578Z,101321.78
2019-05-28T15:09:22.904Z,101327.48
2019-05-28T15:11:53.353Z,101332.36
2019-05-28T15:14:24.162Z,101325.52
2019-05-28T15:16:54.567Z,101319.82
2019-05-28T15:19:24.985Z,101327.64
2019-05-28T15:21:57.077Z,101331.94
2019-05-28T15:24:27.323Z,101332.63
2019-05-28T15:26:58.131Z,101336.84
2019-05-28T15:29:29.073Z,101340.67
2019-05-28T15:31:59.389Z,101340.20
2019-05-28T15:34:29.713Z,101334.88
2019-05-28T15:37:00.655Z,101338.95
2019-05-28T15:39:39.819Z,101342.54
2019-05-28T15:42:03.625Z,101342.20
2019-05-28T15:44:36.919Z,101333.30
2019-05-28T15:47:07.400Z,101342.73
2019-05-28T15:49:37.904Z,101348.02
2019-05-28T15:52:08.241Z,101340.89
2019-05-28T15:54:42.338Z,101341.55
2019-05-28T15:57:12.649Z,101343.31
2019-05-28T15:59:43.074Z,101349.04
2019-05-28T16:02:14.268Z,101360.75
2019-05-28T16:04:45.678Z,101360.59
2019-05-28T16:07:16.512Z,101369.03
2019-05-28T16:09:56.293Z,101371.95
2019-05-28T16:12:19.415Z,101364.38
2019-05-28T16:14:50.360Z,101361.90
2019-05-28T16:17:20.654Z,101357.05
2019-05-28T16:19:51.338Z,101357.15
2019-05-28T16:22:23.234Z,101359.88
2019-05-28T16:24:53.588Z,101369.09
2019-05-28T16:27:23.929Z,101367.84
2019-05-28T16:29:54.293Z,101368.16
2019-05-28T16:32:28.889Z,101370.70
2019-05-28T16:34:56.706Z,101378.04
2019-05-28T16:37:27.062Z,101371.72
2019-05-28T16:40:13.511Z,101380.81
2019-05-28T16:42:30.643Z,101372.01
2019-05-28T16:45:02.057Z,101381.30
2019-05-28T16:47:33.747Z,101380.03
2019-05-28T16:50:07.124Z,101384.97
2019-05-28T16:52:37.368Z,101376.44
2019-05-28T16:55:09.783Z,101388.06
2019-05-28T16:57:40.101Z,101395.12
2019-05-28T17:00:12.858Z,101383.25
2019-05-28T17:02:43.177Z,101393.02
2019-05-28T17:05:15.232Z,101399.77
2019-05-28T17:07:45.546Z,101398.98
2019-05-28T17:10:31.746Z,101398.59
2019-05-28T17:12:49.147Z,101404.73
2019-05-28T17:15:21.123Z,101399.50
2019-05-28T17:17:51.544Z,101402.92
2019-05-28T17:20:22.993Z,101402.77
2019-05-28T17:22:55.329Z,101415.63
2019-05-28T17:25:25.919Z,101413.52
2019-05-28T17:27:56.264Z,101417.20
2019-05-28T17:30:29.200Z,101417.80
2019-05-28T17:33:00.556Z,101415.65
2019-05-28T17:35:31.085Z,101419.67
2019-05-28T17:38:01.375Z,101426.33
2019-05-28T17:40:47.113Z,101428.74
2019-05-28T17:43:04.094Z,101444.21
2019-05-28T17:45:35.548Z,101436.21
2019-05-28T17:48:06.376Z,101445.16
2019-05-28T17:50:38.111Z,101449.14
2019-05-28T17:53:09.376Z,101456.94
2019-05-28T17:55:39.748Z,101456.55
2019-05-28T17:58:10.256Z,101455.73
2019-05-28T18:00:42.805Z,101465.36
2019-05-28T18:03:14.106Z,101463.00
2019-05-28T18:05:44.611Z,101469.34
2019-05-28T18:08:15.038Z,101464.06
2019-05-28T18:10:46.857Z,101468.45
2019-05-28T18:13:17.175Z,101464.48
2019-05-28T18:15:49.157Z,101468.45
2019-05-28T18:18:19.480Z,101479.88
2019-05-28T18:20:50.708Z,101477.22
2019-05-28T18:23:21.030Z,101477.25
2019-05-28T18:25:52.690Z,101476.80
2019-05-28T18:28:22.938Z,101476.34
2019-05-28T18:30:57.307Z,101479.47
2019-05-28T18:33:26.226Z,101488.26
2019-05-28T18:35:58.287Z,101492.24
2019-05-28T18:38:28.607Z,101485.16
2019-05-28T18:40:58.946Z,101494.03
2019-05-28T18:43:29.415Z,101497.59
2019-05-28T18:46:02.229Z,101494.55
2019-05-28T18:48:33.430Z,101493.23
2019-05-28T18:51:04.005Z,101506.47
2019-05-28T18:53:34.285Z,101505.55
2019-05-28T18:56:16.989Z,101503.41
2019-05-28T18:58:38.335Z,101509.53
2019-05-28T19:01:09.903Z,101517.41
2019-05-28T19:03:42.155Z,101515.19
2019-05-28T19:06:13.011Z,101510.81
2019-05-28T19:08:43.336Z,101512.56
2019-05-28T19:11:13.750Z,101514.75
2019-05-28T19:13:44.638Z,101521.33
2019-05-28T19:16:16.235Z,101519.09
2019-05-28T19:18:46.654Z,101517.33
2019-05-28T19:21:16.986Z,101525.63
2019-05-28T19:23:48.067Z,101524.75
2019-05-28T19:26:18.851Z,101537.44
2019-05-28T19:28:49.597Z,101534.80
2019-05-28T19:31:19.964Z,101534.80
2019-05-28T19:33:50.345Z,101541.31
2019-05-28T19:36:22.447Z,101548.72
2019-05-28T19:38:53.418Z,101549.16
2019-05-28T19:41:24.140Z,101548.73
2019-05-28T19:43:54.917Z,101554.73
2019-05-28T19:46:26.467Z,101556.42
2019-05-28T19:48:56.823Z,101551.95
2019-05-28T19:51:27.207Z,101558.05
2019-05-28T19:53:57.637Z,101565.81
2019-05-28T19:56:28.945Z,101569.26
2019-05-28T19:58:59.205Z,101569.23
2019-05-28T20:01:29.554Z,101578.77
2019-05-28T20:04:01.082Z,101580.93
2019-05-28T20:06:32.863Z,101584.41
2019-05-28T20:09:03.182Z,101587.41
2019-05-28T20:11:33.915Z,101594.30
2019-05-28T20:14:05.606Z,101597.42
2019-05-28T20:16:39.193Z,101599.25
2019-05-28T20:19:09.905Z,101604.36
2019-05-28T20:21:40.808Z,101603.47
2019-05-28T20:24:11.075Z,101610.81
2019-05-28T20:26:41.441Z,101606.76
2019-05-28T20:29:13.446Z,101615.88
2019-05-28T20:31:44.885Z,101618.25
2019-05-28T20:34:15.183Z,101613.22
2019-05-28T20:36:48.829Z,101615.77
2019-05-28T20:39:19.230Z,101613.11
2019-05-28T20:41:50.151Z,101617.51
2019-05-28T20:44:20.998Z,101622.73
2019-05-28T20:46:52.454Z,101628.30
2019-05-28T20:49:22.796Z,101628.69
2019-05-28T20:51:54.002Z,101632.55
2019-05-28T20:54:24.322Z,101644.34
2019-05-28T20:56:56.799Z,101637.23
2019-05-28T20:59:28.101Z,101635.63
2019-05-28T21:02:00.003Z,101642.14
2019-05-28T21:04:30.949Z,101644.69
2019-05-28T21:07:02.386Z,101644.19
2019-05-28T21:09:32.711Z,101647.67
2019-05-28T21:12:03.081Z,101652.44
2019-05-28T21:14:33.569Z,101652.46
2019-05-28T21:17:04.075Z,101657.57
2019-05-28T21:19:34.692Z,101660.63
2019-05-28T21:22:05.583Z,101659.65
2019-05-28T21:24:37.107Z,101661.30
2019-05-28T21:27:07.712Z,101664.40
2019-05-28T21:29:39.376Z,101663.05
2019-05-28T21:32:10.459Z,101661.76
2019-05-28T21:34:40.812Z,101666.61
2019-05-28T21:37:11.372Z,101669.41
2019-05-28T21:39:42.174Z,101668.70
2019-05-28T21:42:13.895Z,101664.34
2019-05-28T21:44:44.357Z,101666.12
2019-05-28T21:47:15.909Z,101671.17
2019-05-28T21:49:46.216Z,101671.77
2019-05-28T21:52:17.616Z,101684.08
2019-05-28T21:54:47.936Z,101679.03
2019-05-28T21:57:19.418Z,101677.08
2019-05-28T21:59:50.440Z,101675.23
2019-05-28T22:02:22.351Z,101677.30
2019-05-28T22:04:52.784Z,101682.47
2019-05-28T22:07:24.082Z,101677.61
2019-05-28T22:09:55.517Z,101680.27
2019-05-28T22:12:26.047Z,101678.37
2019-05-28T22:14:56.469Z,101679.50
2019-05-28T22:17:27.088Z,101682.95
2019-05-28T22:19:58.541Z,101682.06
2019-05-28T22:22:28.892Z,101692.03
2019-05-28T22:24:59.135Z,101690.97
2019-05-28T22:27:31.553Z,101687.30
2019-05-28T22:30:04.315Z,101691.60
2019-05-28T22:32:35.000Z,101696.38
2019-05-28T22:35:08.244Z,101702.17
2019-05-28T22:37:42.486Z,101697.72
2019-05-28T22:40:12.423Z,101699.31
2019-05-28T22:42:42.620Z,101701.02
2019-05-28T22:45:14.469Z,101708.42
2019-05-28T22:47:46.526Z,101711.45
2019-05-28T22:50:22.865Z,101705.32
2019-05-28T22:52:49.261Z,101711.34
2019-05-28T22:55:20.130Z,101716.15
2019-05-28T22:57:51.084Z,101723.17
2019-05-28T23:00:21.941Z,101720.95
2019-05-28T23:02:52.356Z,101717.83
2019-05-28T23:05:23.636Z,101729.14
2019-05-28T23:07:54.366Z,101729.51
2019-05-28T23:10:25.892Z,101731.19
2019-05-28T23:12:56.259Z,101730.64
2019-05-28T23:15:26.590Z,101731.06
2019-05-28T23:18:00.364Z,101729.27
2019-05-28T23:20:31.843Z,101730.19
2019-05-28T23:23:03.228Z,101735.81
2019-05-28T23:25:33.813Z,101726.75
2019-05-28T23:28:07.583Z,101728.33
2019-05-28T23:30:37.467Z,101728.63
2019-05-28T23:33:12.161Z,101734.66
2019-05-28T23:35:40.983Z,101734.56
2019-05-28T23:38:11.781Z,101737.08
2019-05-28T23:40:42.105Z,101739.59
2019-05-28T23:43:13.806Z,101729.02
2019-05-28T23:45:44.167Z,101724.19
2019-05-28T23:48:18.501Z,101732.88
2019-05-28T23:50:49.133Z,101732.84
2019-05-28T23:53:20.516Z,101728.86
2019-05-28T23:55:50.765Z,101729.83
2019-05-28T23:58:22.724Z,101732.35
